createdAt,value
2018-03-24T00:00:58.004Z,17.00
2018-03-24T00:03:24.051Z,16.80
2018-03-24T00:05:50.303Z,18.17
2018-03-24T00:08:16.399Z,17.60
2018-03-24T00:10:42.414Z,17.60
2018-03-24T00:13:08.439Z,15.93
2018-03-24T00:15:34.478Z,17.50
2018-03-24T00:18:00.503Z,17.27
2018-03-24T00:20:26.526Z,16.17
2018-03-24T00:22:52.906Z,18.40
2018-03-24T00:25:18.923Z,16.30
2018-03-24T00:27:44.978Z,16.50
2018-03-24T00:30:11.019Z,17.20
2018-03-24T00:32:37.027Z,17.63
2018-03-24T00:35:03.078Z,17.47
2018-03-24T00:37:29.115Z,17.83
2018-03-24T00:39:55.907Z,17.47
2018-03-24T00:42:21.917Z,17.00
2018-03-24T00:44:47.954Z,16.20
2018-03-24T00:47:13.967Z,16.47
2018-03-24T00:49:39.987Z,15.70
2018-03-24T00:52:06.050Z,16.07
2018-03-24T00:54:32.103Z,14.60
2018-03-24T00:56:58.181Z,15.17
2018-03-24T00:59:24.411Z,14.70
2018-03-24T01:01:50.611Z,15.87
2018-03-24T01:04:16.643Z,17.43
2018-03-24T01:06:42.972Z,17.73
2018-03-24T01:09:08.979Z,16.63
2018-03-24T01:11:35.018Z,17.23
2018-03-24T01:14:01.053Z,15.97
2018-03-24T01:16:27.070Z,17.47
2018-03-24T01:18:53.077Z,16.37
2018-03-24T01:21:19.523Z,15.83
2018-03-24T01:23:45.547Z,18.13
2018-03-24T01:26:11.566Z,14.87
2018-03-24T01:28:37.590Z,16.20
2018-03-24T01:31:03.663Z,15.13
2018-03-24T01:33:29.674Z,18.33
2018-03-24T01:35:55.718Z,17.20
2018-03-24T01:38:22.195Z,17.47
2018-03-24T01:40:48.214Z,18.03
2018-03-24T01:43:14.259Z,17.40
2018-03-24T01:45:40.286Z,16.73
2018-03-24T01:48:06.334Z,16.30
2018-03-24T01:50:32.647Z,15.03
2018-03-24T01:52:58.686Z,16.47
2018-03-24T01:55:24.885Z,17.47
2018-03-24T01:57:52.168Z,16.80
2018-03-24T02:00:18.257Z,17.27
2018-03-24T02:02:44.370Z,15.70
2018-03-24T02:05:10.383Z,16.70
2018-03-24T02:07:36.434Z,16.17
2018-03-24T02:10:02.538Z,16.40
2018-03-24T02:12:28.547Z,15.70
2018-03-24T02:14:55.306Z,16.07
2018-03-24T02:17:21.315Z,15.93
2018-03-24T02:19:47.367Z,16.17
2018-03-24T02:22:13.526Z,16.93
2018-03-24T02:24:46.469Z,16.73
2018-03-24T02:27:12.606Z,17.13
2018-03-24T02:29:38.834Z,15.40
2018-03-24T02:32:04.958Z,17.43
2018-03-24T02:34:31.000Z,17.23
2018-03-24T02:36:57.028Z,16.90
2018-03-24T02:39:23.345Z,18.43
2018-03-24T02:41:49.370Z,18.10
2018-03-24T02:44:15.421Z,17.90
2018-03-24T02:46:41.529Z,18.50
2018-03-24T02:49:07.578Z,17.30
2018-03-24T02:51:33.607Z,17.23
2018-03-24T02:53:59.823Z,16.70
2018-03-24T02:56:25.841Z,17.80
2018-03-24T02:58:51.866Z,19.13
2018-03-24T03:01:18.099Z,19.30
2018-03-24T03:03:44.332Z,18.33
2018-03-24T03:06:10.359Z,17.93
2018-03-24T03:15:18.156Z,16.77
2018-03-24T03:17:44.363Z,16.73
2018-03-24T03:20:11.156Z,19.00
2018-03-24T03:22:37.187Z,18.63
2018-03-24T03:25:03.951Z,18.40
2018-03-24T03:27:30.079Z,19.13
2018-03-24T03:29:56.106Z,18.47
2018-03-24T03:32:24.814Z,18.63
2018-03-24T03:34:50.851Z,18.27
2018-03-24T03:37:16.858Z,17.40
2018-03-24T03:39:42.967Z,18.43
2018-03-24T03:42:08.997Z,17.67
2018-03-24T03:44:35.054Z,17.07
2018-03-24T03:47:01.079Z,18.23
2018-03-24T03:49:27.140Z,17.77
2018-03-24T03:51:53.158Z,17.53
2018-03-24T03:54:19.935Z,16.57
2018-03-24T03:56:45.982Z,15.97
2018-03-24T03:59:11.998Z,17.57
2018-03-24T04:01:38.062Z,17.77
2018-03-24T04:04:04.165Z,18.13
2018-03-24T04:06:30.365Z,17.67
2018-03-24T04:08:57.139Z,16.27
2018-03-24T04:11:23.162Z,17.30
2018-03-24T04:13:49.175Z,16.60
2018-03-24T04:16:15.197Z,16.40
2018-03-24T04:18:41.751Z,17.03
2018-03-24T04:21:08.038Z,17.33
2018-03-24T04:23:34.063Z,16.93
2018-03-24T04:26:00.118Z,14.90
2018-03-24T04:28:26.130Z,17.30
2018-03-24T04:30:52.226Z,16.60
2018-03-24T04:33:19.011Z,17.13
2018-03-24T04:35:45.026Z,16.10
2018-03-24T04:38:11.051Z,17.93
2018-03-24T04:40:37.064Z,15.83
2018-03-24T04:43:03.134Z,16.27
2018-03-24T04:45:29.526Z,16.70
2018-03-24T04:47:55.551Z,16.93
2018-03-24T04:50:21.609Z,14.83
2018-03-24T04:52:47.651Z,16.10
2018-03-24T04:55:13.682Z,16.03
2018-03-24T04:57:39.703Z,15.97
2018-03-24T05:00:05.751Z,16.73
2018-03-24T05:02:32.339Z,16.83
2018-03-24T05:04:58.346Z,16.70
2018-03-24T05:07:24.434Z,14.30
2018-03-24T05:09:51.171Z,15.97
2018-03-24T05:12:17.194Z,16.30
2018-03-24T05:14:43.218Z,16.33
2018-03-24T05:17:09.266Z,15.97
2018-03-24T05:19:35.358Z,16.13
2018-03-24T05:22:01.374Z,16.50
2018-03-24T05:24:27.398Z,15.47
2018-03-24T05:26:53.415Z,15.67
2018-03-24T05:29:19.434Z,15.87
2018-03-24T05:31:45.441Z,15.70
2018-03-24T05:34:11.526Z,17.10
2018-03-24T05:36:37.623Z,17.53
2018-03-24T05:39:03.650Z,16.60
2018-03-24T05:41:29.686Z,17.07
2018-03-24T05:43:56.142Z,15.90
2018-03-24T05:46:22.202Z,17.20
2018-03-24T05:48:48.763Z,16.17
2018-03-24T05:51:14.812Z,17.57
2018-03-24T05:53:40.870Z,18.20
2018-03-24T05:56:06.903Z,16.40
2018-03-24T05:58:32.929Z,16.60
2018-03-24T06:00:59.335Z,16.03
2018-03-24T06:03:25.342Z,17.47
2018-03-24T06:05:51.399Z,16.83
2018-03-24T06:08:17.460Z,15.73
2018-03-24T06:10:43.493Z,16.50
2018-03-24T06:13:09.661Z,14.67
2018-03-24T06:15:50.639Z,16.47
2018-03-24T06:18:16.683Z,16.03
2018-03-24T06:20:43.458Z,15.90
2018-03-24T06:23:09.886Z,15.43
2018-03-24T06:25:36.034Z,16.43
2018-03-24T06:28:02.822Z,16.37
2018-03-24T06:30:29.398Z,16.10
2018-03-24T06:32:55.627Z,14.80
2018-03-24T06:35:21.894Z,15.03
2018-03-24T06:37:47.917Z,14.57
2018-03-24T06:40:13.971Z,15.43
2018-03-24T06:42:40.035Z,16.03
2018-03-24T06:45:06.803Z,14.83
2018-03-24T06:47:32.895Z,14.33
2018-03-24T06:49:59.878Z,13.47
2018-03-24T06:52:25.904Z,14.63
2018-03-24T06:54:51.951Z,13.83
2018-03-24T06:57:18.006Z,13.77
2018-03-24T06:59:44.915Z,13.13
2018-03-24T07:02:10.922Z,15.63
2018-03-24T07:04:36.927Z,13.63
2018-03-24T07:07:02.970Z,13.23
2018-03-24T07:09:29.101Z,14.17
2018-03-24T07:11:55.154Z,15.13
2018-03-24T07:14:21.181Z,13.43
2018-03-24T07:16:47.203Z,14.63
2018-03-24T07:19:13.263Z,12.97
2018-03-24T07:21:39.298Z,13.90
2018-03-24T07:24:05.343Z,13.03
2018-03-24T07:26:31.368Z,14.20
2018-03-24T07:28:57.796Z,14.00
2018-03-24T07:31:25.190Z,13.73
2018-03-24T07:33:51.186Z,13.10
2018-03-24T07:36:17.263Z,13.80
2018-03-24T07:38:43.258Z,11.37
2018-03-24T07:41:09.872Z,13.10
2018-03-24T07:43:35.908Z,12.87
2018-03-24T07:46:01.932Z,11.77
2018-03-24T07:48:28.015Z,13.23
2018-03-24T07:50:54.042Z,12.60
2018-03-24T07:53:20.083Z,11.17
2018-03-24T07:55:46.155Z,12.17
2018-03-24T07:58:12.290Z,11.80
2018-03-24T08:00:39.089Z,12.10
2018-03-24T08:03:05.139Z,12.80
2018-03-24T08:05:31.180Z,12.37
2018-03-24T08:07:57.247Z,11.27
2018-03-24T08:10:23.248Z,11.73
2018-03-24T08:12:49.276Z,12.77
2018-03-24T08:15:15.310Z,14.30
2018-03-24T08:17:41.330Z,12.93
2018-03-24T08:20:07.379Z,12.13
2018-03-24T08:22:33.386Z,12.53
2018-03-24T08:24:59.426Z,13.23
2018-03-24T08:27:25.462Z,13.90
2018-03-24T08:29:51.463Z,12.33
2018-03-24T08:32:18.204Z,12.40
2018-03-24T08:34:44.445Z,11.53
2018-03-24T08:37:10.483Z,13.77
2018-03-24T08:39:36.518Z,12.77
2018-03-24T08:42:02.582Z,14.73
2018-03-24T08:44:28.602Z,12.90
2018-03-24T08:46:55.347Z,13.77
2018-03-24T08:49:21.550Z,11.73
2018-03-24T08:51:47.563Z,13.03
2018-03-24T08:54:13.610Z,12.10
2018-03-24T08:56:39.655Z,12.03
2018-03-24T08:59:05.715Z,12.73
2018-03-24T09:01:31.733Z,14.23
2018-03-24T09:03:57.774Z,13.60
2018-03-24T09:06:23.814Z,14.87
2018-03-24T09:08:49.879Z,14.37
2018-03-24T09:11:15.890Z,13.73
2018-03-24T09:13:41.902Z,13.40
2018-03-24T09:16:07.926Z,15.03
2018-03-24T09:18:34.699Z,15.20
2018-03-24T09:21:00.758Z,16.00
2018-03-24T09:23:26.829Z,16.90
2018-03-24T09:25:52.834Z,16.50
2018-03-24T09:28:20.073Z,15.47
2018-03-24T09:30:46.094Z,13.83
2018-03-24T09:33:12.174Z,16.27
2018-03-24T09:35:38.302Z,15.37
2018-03-24T09:38:04.457Z,14.90
2018-03-24T09:40:30.475Z,16.70
2018-03-24T09:42:56.806Z,16.77
2018-03-24T09:45:22.835Z,16.60
2018-03-24T09:47:48.869Z,16.03
2018-03-24T09:50:14.915Z,14.40
2018-03-24T09:52:41.808Z,15.57
2018-03-24T09:55:08.519Z,14.40
2018-03-24T09:57:34.562Z,13.00
2018-03-24T10:00:00.620Z,13.63
2018-03-24T10:02:27.395Z,13.90
2018-03-24T10:04:53.437Z,11.43
2018-03-24T10:07:19.462Z,9.47
2018-03-24T10:09:45.486Z,8.93
2018-03-24T10:12:11.526Z,10.27
2018-03-24T10:14:37.568Z,13.33
2018-03-24T10:17:05.614Z,11.30
2018-03-24T10:19:31.638Z,12.33
2018-03-24T10:24:58.383Z,13.43
2018-03-24T10:27:24.709Z,9.37
2018-03-24T10:29:50.747Z,11.13
2018-03-24T10:32:16.776Z,9.90
2018-03-24T10:34:43.602Z,7.53
2018-03-24T10:37:09.599Z,8.80
2018-03-24T10:39:35.624Z,8.70
2018-03-24T10:42:01.690Z,7.57
2018-03-24T10:44:27.863Z,8.33
2018-03-24T10:46:53.910Z,8.50
2018-03-24T10:49:19.918Z,8.10
2018-03-24T10:51:45.994Z,11.47
2018-03-24T10:54:12.369Z,9.97
2018-03-24T10:56:38.390Z,9.43
2018-03-24T10:59:04.695Z,8.33
2018-03-24T11:01:30.727Z,11.53
2018-03-24T11:03:57.131Z,11.43
2018-03-24T11:06:23.163Z,10.33
2018-03-24T11:08:49.205Z,9.23
2018-03-24T11:11:15.907Z,8.60
2018-03-24T11:13:42.651Z,7.13
2018-03-24T11:16:08.666Z,8.70
2018-03-24T11:18:34.711Z,6.60
2018-03-24T11:21:00.730Z,8.63
2018-03-24T11:23:27.087Z,8.10
2018-03-24T11:25:53.130Z,7.40
2018-03-24T11:28:19.126Z,7.33
2018-03-24T11:30:45.183Z,7.53
2018-03-24T11:33:11.242Z,6.97
2018-03-24T11:35:37.309Z,7.67
2018-03-24T11:38:03.360Z,8.27
2018-03-24T11:40:29.386Z,6.90
2018-03-24T11:42:55.434Z,7.60
2018-03-24T11:45:21.456Z,7.17
2018-03-24T11:47:48.347Z,7.30
2018-03-24T11:50:14.393Z,7.20
2018-03-24T11:52:40.375Z,7.83
2018-03-24T11:55:06.427Z,7.80
2018-03-24T11:57:32.484Z,7.87
2018-03-24T11:59:58.518Z,8.80
2018-03-24T12:02:24.797Z,7.80
2018-03-24T12:04:50.815Z,8.10
2018-03-24T12:07:16.879Z,8.13
2018-03-24T12:09:42.872Z,9.30
2018-03-24T12:12:08.896Z,9.23
2018-03-24T12:14:34.943Z,8.50
2018-03-24T12:17:00.966Z,9.40
2018-03-24T12:19:27.342Z,9.57
2018-03-24T12:21:53.370Z,9.80
2018-03-24T12:24:19.407Z,9.17
2018-03-24T12:26:45.560Z,8.57
2018-03-24T12:29:11.630Z,7.20
2018-03-24T12:31:37.791Z,9.53
2018-03-24T12:34:03.838Z,9.17
2018-03-24T12:36:29.851Z,8.93
2018-03-24T12:38:55.866Z,9.23
2018-03-24T12:41:21.921Z,10.10
2018-03-24T12:43:47.970Z,10.10
2018-03-24T12:46:14.295Z,9.10
2018-03-24T12:48:41.067Z,10.00
2018-03-24T12:51:07.086Z,9.87
2018-03-24T12:53:33.131Z,7.27
2018-03-24T12:55:59.547Z,9.07
2018-03-24T12:58:25.604Z,10.00
2018-03-24T13:00:51.632Z,10.00
2018-03-24T13:03:17.646Z,11.97
2018-03-24T13:05:43.727Z,11.23
2018-03-24T13:08:09.768Z,11.30
2018-03-24T13:10:35.793Z,10.57
2018-03-24T13:13:01.830Z,10.90
2018-03-24T13:15:27.841Z,9.60
2018-03-24T13:17:53.870Z,10.33
2018-03-24T13:20:19.954Z,9.63
2018-03-24T13:22:45.963Z,11.33
2018-03-24T13:25:12.019Z,11.20
2018-03-24T13:27:38.109Z,11.47
2018-03-24T13:30:04.738Z,11.30
2018-03-24T13:32:30.794Z,10.67
2018-03-24T13:34:56.802Z,12.00
2018-03-24T13:37:23.845Z,11.07
2018-03-24T13:39:50.623Z,8.87
2018-03-24T13:42:16.658Z,10.07
2018-03-24T13:44:42.762Z,10.07
2018-03-24T13:47:08.786Z,11.53
2018-03-24T13:49:35.551Z,12.00
2018-03-24T13:52:01.607Z,12.63
2018-03-24T13:54:27.644Z,12.43
2018-03-24T13:56:53.710Z,12.10
2018-03-24T13:59:19.810Z,12.43
2018-03-24T14:01:45.862Z,11.87
2018-03-24T14:04:11.902Z,12.20
2018-03-24T14:06:37.944Z,12.23
2018-03-24T14:09:03.999Z,12.40
2018-03-24T14:11:30.287Z,11.40
2018-03-24T14:13:56.298Z,11.73
2018-03-24T14:16:22.347Z,11.37
2018-03-24T14:18:48.388Z,11.67
2018-03-24T14:21:14.438Z,14.10
2018-03-24T14:23:40.455Z,14.27
2018-03-24T14:26:06.507Z,13.37
2018-03-24T14:28:32.622Z,12.97
2018-03-24T14:30:58.718Z,12.83
2018-03-24T14:33:25.231Z,14.10
2018-03-24T14:35:51.251Z,13.03
2018-03-24T14:38:17.314Z,12.10
2018-03-24T14:40:43.324Z,14.77
2018-03-24T14:43:09.378Z,12.33
2018-03-24T14:45:35.727Z,12.57
2018-03-24T14:48:01.759Z,13.73
2018-03-24T14:50:27.802Z,12.20
2018-03-24T14:52:53.833Z,13.17
2018-03-24T14:55:19.890Z,12.87
2018-03-24T14:57:46.727Z,13.80
2018-03-24T15:00:13.510Z,13.77
2018-03-24T15:02:39.549Z,14.43
2018-03-24T15:05:05.566Z,13.90
2018-03-24T15:07:31.608Z,13.37
2018-03-24T15:09:57.662Z,13.60
2018-03-24T15:12:23.743Z,13.73
2018-03-24T15:14:49.744Z,13.70
2018-03-24T15:17:15.773Z,16.83
2018-03-24T15:19:41.854Z,14.77
2018-03-24T15:22:07.919Z,14.63
2018-03-24T15:24:33.949Z,13.57
2018-03-24T15:27:00.377Z,15.77
2018-03-24T15:29:38.694Z,16.57
2018-03-24T15:32:17.683Z,16.60
2018-03-24T15:34:55.892Z,15.47
2018-03-24T15:37:21.919Z,16.37
2018-03-24T15:39:47.929Z,15.17
2018-03-24T15:42:14.103Z,17.87
2018-03-24T15:44:40.445Z,17.07
2018-03-24T15:47:06.521Z,17.07
2018-03-24T15:49:33.551Z,16.73
2018-03-24T15:51:59.573Z,15.67
2018-03-24T15:54:25.681Z,16.80
2018-03-24T15:56:51.867Z,16.53
2018-03-24T15:59:17.992Z,16.27
2018-03-24T16:01:44.050Z,16.13
2018-03-24T16:04:10.347Z,17.13
2018-03-24T16:06:37.146Z,18.10
2018-03-24T16:09:03.553Z,17.43
2018-03-24T16:11:29.595Z,16.97
2018-03-24T16:13:55.618Z,16.97
2018-03-24T16:16:21.757Z,17.83
2018-03-24T16:18:47.842Z,18.17
2018-03-24T16:21:14.666Z,17.23
2018-03-24T16:23:40.781Z,17.07
2018-03-24T16:26:06.813Z,17.73
2018-03-24T16:28:33.601Z,17.17
2018-03-24T16:31:01.026Z,18.27
2018-03-24T16:33:27.086Z,17.63
2018-03-24T16:35:53.363Z,17.57
2018-03-24T16:38:19.530Z,17.13
2018-03-24T16:40:45.641Z,18.17
2018-03-24T16:43:11.687Z,17.60
2018-03-24T16:45:38.158Z,17.57
2018-03-24T16:48:04.383Z,17.23
2018-03-24T16:50:30.486Z,17.27
2018-03-24T16:52:57.333Z,16.47
2018-03-24T16:55:23.408Z,16.40
2018-03-24T16:57:49.446Z,16.00
2018-03-24T17:00:15.647Z,16.40
2018-03-24T17:02:42.476Z,15.93
2018-03-24T17:05:09.265Z,15.73
2018-03-24T17:07:35.282Z,15.47
2018-03-24T17:10:01.388Z,14.37
2018-03-24T17:12:27.394Z,14.67
2018-03-24T17:14:53.422Z,14.70
2018-03-24T17:17:20.408Z,13.90
2018-03-24T17:19:46.644Z,15.07
2018-03-24T17:22:13.296Z,14.37
2018-03-24T17:24:39.318Z,14.03
2018-03-24T17:27:05.373Z,13.77
2018-03-24T17:29:31.418Z,13.77
2018-03-24T17:31:58.058Z,12.50
2018-03-24T17:34:24.071Z,13.57
2018-03-24T17:36:51.065Z,13.77
2018-03-24T17:39:17.077Z,12.10
2018-03-24T17:41:43.103Z,12.63
2018-03-24T17:44:09.174Z,13.30
2018-03-24T17:46:35.227Z,12.17
2018-03-24T17:49:01.280Z,13.73
2018-03-24T17:51:27.293Z,14.27
2018-03-24T17:53:54.045Z,14.33
2018-03-24T17:56:20.126Z,14.93
2018-03-24T17:58:46.982Z,15.90
2018-03-24T18:01:13.006Z,22.57
2018-03-24T18:03:39.746Z,22.53
2018-03-24T18:06:05.792Z,18.33
2018-03-24T18:08:32.434Z,16.30
2018-03-24T18:10:58.530Z,14.60
2018-03-24T18:13:25.700Z,14.77
2018-03-24T18:15:51.710Z,12.90
2018-03-24T18:18:18.160Z,13.70
2018-03-24T18:20:44.790Z,14.93
2018-03-24T18:23:10.843Z,15.17
2018-03-24T18:25:36.906Z,41.43
2018-03-24T18:28:03.683Z,31.30
2018-03-24T18:30:29.691Z,23.00
2018-03-24T18:32:55.742Z,23.73
2018-03-24T18:35:21.774Z,22.70
2018-03-24T18:37:47.858Z,16.87
2018-03-24T18:40:13.906Z,13.40
2018-03-24T18:42:39.928Z,13.90
2018-03-24T18:45:07.074Z,13.87
2018-03-24T18:47:33.080Z,14.07
2018-03-24T18:49:59.156Z,13.30
2018-03-24T18:52:25.186Z,14.10
2018-03-24T18:54:51.192Z,12.47
2018-03-24T18:57:17.183Z,12.67
2018-03-24T18:59:43.634Z,12.53
2018-03-24T19:02:09.698Z,12.37
2018-03-24T19:04:35.747Z,13.47
2018-03-24T19:07:02.555Z,13.23
2018-03-24T19:09:29.326Z,11.73
2018-03-24T19:11:55.334Z,12.43
2018-03-24T19:14:21.726Z,13.53
2018-03-24T19:16:47.786Z,13.03
2018-03-24T19:19:13.786Z,13.23
2018-03-24T19:21:40.098Z,13.67
2018-03-24T19:24:06.152Z,12.87
2018-03-24T19:26:32.255Z,14.20
2018-03-24T19:28:58.289Z,13.53
2018-03-24T19:31:24.402Z,14.03
2018-03-24T19:33:50.427Z,13.17
2018-03-24T19:36:16.486Z,13.17
2018-03-24T19:38:42.534Z,14.30
2018-03-24T19:41:09.520Z,13.53
2018-03-24T19:43:35.542Z,13.30
2018-03-24T19:46:01.588Z,12.93
2018-03-24T19:48:27.602Z,14.10
2018-03-24T19:50:54.027Z,12.90
2018-03-24T19:53:20.123Z,13.77
2018-03-24T19:55:46.155Z,11.40
2018-03-24T19:58:12.199Z,12.60
2018-03-24T20:00:38.227Z,14.03
2018-03-24T20:03:04.465Z,14.27
2018-03-24T20:05:30.546Z,13.83
2018-03-24T20:07:56.574Z,14.50
2018-03-24T20:10:22.650Z,14.50
2018-03-24T20:12:48.668Z,14.30
2018-03-24T20:15:14.696Z,13.60
2018-03-24T20:17:41.721Z,14.70
2018-03-24T20:20:07.727Z,14.57
2018-03-24T20:22:33.751Z,13.67
2018-03-24T20:24:59.782Z,13.60
2018-03-24T20:27:25.798Z,14.63
2018-03-24T20:29:51.954Z,14.23
2018-03-24T20:32:17.993Z,14.60
2018-03-24T20:34:44.022Z,14.80
2018-03-24T20:37:10.046Z,14.47
2018-03-24T20:39:36.438Z,15.43
2018-03-24T20:42:02.774Z,14.20
2018-03-24T20:44:28.827Z,14.83
2018-03-24T20:46:54.851Z,14.30
2018-03-24T20:49:20.898Z,13.37
2018-03-24T20:51:46.898Z,14.97
2018-03-24T20:54:12.946Z,14.20
2018-03-24T20:56:39.327Z,14.53
2018-03-24T20:59:05.342Z,15.43
2018-03-24T21:01:31.383Z,14.70
2018-03-24T21:04:12.345Z,14.83
2018-03-24T21:06:38.354Z,15.60
2018-03-24T21:09:04.639Z,17.13
2018-03-24T21:11:30.667Z,17.97
2018-03-24T21:13:56.694Z,16.63
2018-03-24T21:16:22.706Z,17.20
2018-03-24T21:18:48.719Z,17.77
2018-03-24T21:21:14.763Z,17.50
2018-03-24T21:23:40.818Z,17.20
2018-03-24T21:26:07.570Z,16.37
2018-03-24T21:28:33.650Z,17.77
2018-03-24T21:30:59.747Z,18.47
2018-03-24T21:33:25.772Z,16.60
2018-03-24T21:35:51.782Z,16.73
2018-03-24T21:38:17.794Z,17.10
2018-03-24T21:40:43.815Z,18.03
2018-03-24T21:43:09.886Z,17.63
2018-03-24T21:45:35.929Z,17.57
2018-03-24T21:48:02.402Z,17.47
2018-03-24T21:50:28.405Z,16.87
2018-03-24T21:52:54.431Z,18.67
2018-03-24T21:55:20.534Z,25.23
2018-03-24T21:57:46.915Z,29.93
2018-03-24T22:00:12.926Z,22.17
2018-03-24T22:02:38.926Z,28.97
2018-03-24T22:05:04.961Z,23.30
2018-03-24T22:07:31.031Z,23.43
2018-03-24T22:09:57.034Z,23.57
2018-03-24T22:12:23.055Z,23.80
2018-03-24T22:14:49.084Z,23.00
2018-03-24T22:17:15.083Z,22.47
2018-03-24T22:19:41.130Z,21.97
2018-03-24T22:22:07.198Z,22.67
2018-03-24T22:24:33.285Z,23.17
2018-03-24T22:26:59.351Z,24.20
2018-03-24T22:29:25.362Z,21.47
2018-03-24T22:31:51.411Z,25.10
2018-03-24T22:34:17.481Z,23.27
2018-03-24T22:36:43.494Z,23.00
2018-03-24T22:39:09.530Z,22.73
2018-03-24T22:41:35.558Z,23.67
2018-03-24T22:44:01.625Z,25.87
2018-03-24T22:46:27.656Z,27.27
2018-03-24T22:48:53.759Z,25.33
2018-03-24T22:51:20.310Z,26.87
2018-03-24T22:53:46.266Z,27.23
2018-03-24T22:56:12.345Z,24.60
2018-03-24T22:58:38.382Z,26.90
2018-03-24T23:01:04.411Z,25.80
2018-03-24T23:03:30.443Z,23.67
2018-03-24T23:05:56.802Z,24.97
2018-03-24T23:08:22.856Z,25.73
2018-03-24T23:10:49.646Z,25.03
2018-03-24T23:13:15.662Z,24.60
2018-03-24T23:15:41.711Z,25.17
2018-03-24T23:18:07.746Z,24.37
2018-03-24T23:20:33.854Z,23.60
2018-03-24T23:22:59.915Z,27.00
2018-03-24T23:25:25.937Z,25.63
2018-03-24T23:27:51.935Z,25.93
2018-03-24T23:30:18.220Z,22.90
2018-03-24T23:32:44.366Z,23.30
2018-03-24T23:35:10.415Z,25.07
2018-03-24T23:37:36.954Z,24.03
2018-03-24T23:40:03.030Z,22.67
2018-03-24T23:42:29.824Z,22.63
2018-03-24T23:44:55.841Z,23.43
2018-03-24T23:47:21.887Z,22.73
2018-03-24T23:49:48.201Z,23.27
2018-03-24T23:52:14.214Z,21.57
2018-03-24T23:54:40.234Z,21.73
2018-03-24T23:57:07.006Z,20.70
2018-03-24T23:59:33.145Z,22.00
